Time,TemperatureF,DewpointF,PressureIn,WindDirection,WindDirectionDegrees,WindSpeedMPH,WindSpeedGustMPH,Humidity,HourlyPrecipIn,Conditions,Clouds,dailyrainin,SoftwareType,DateUTC
2013-04-01 00:15:00,38.9,36.2,29.63,SE,124,6.0,12.0,90,0.05,,---,0.09,VWS V12.07,2013-04-01 04:15:00,
2013-04-01 00:25:00,38.8,36.4,29.62,ESE,114,4.0,12.0,91,0.06,,---,0.10,VWS V12.07,2013-04-01 04:25:00,
2013-04-01 00:33:00,38.5,36.1,29.61,ESE,114,4.0,7.0,91,0.06,,---,0.11,VWS V12.07,2013-04-01 04:33:00,
2013-04-01 00:45:00,38.0,35.3,29.61,East,97,4.0,14.0,90,0.08,,---,0.13,VWS V12.07,2013-04-01 04:45:00,
2013-04-01 00:55:00,37.9,35.5,29.61,ENE,64,3.0,14.0,91,0.09,,---,0.14,VWS V12.07,2013-04-01 04:55:00,
2013-04-01 01:05:00,37.6,35.2,29.60,East,91,3.0,4.0,91,0.08,,---,0.00,VWS V12.07,2013-04-01 05:05:00,
2013-04-01 01:15:00,37.5,35.4,29.60,East,93,4.0,6.0,92,0.09,,---,0.01,VWS V12.07,2013-04-01 05:15:00,
2013-04-01 01:25:00,37.3,35.5,29.59,NE,51,5.0,6.0,93,0.10,,---,0.02,VWS V12.07,2013-04-01 05:25:00,
2013-04-01 01:35:00,37.2,35.6,29.58,NNE,31,8.0,9.0,94,0.07,,---,0.03,VWS V12.07,2013-04-01 05:35:00,
2013-04-01 01:45:00,37.0,35.4,29.58,NE,41,10.0,10.0,94,0.08,,---,0.04,VWS V12.07,2013-04-01 05:45:00,
2013-04-01 01:55:00,36.9,35.6,29.57,NNE,16,10.0,13.0,95,0.08,,---,0.04,VWS V12.07,2013-04-01 05:55:00,
2013-04-01 02:05:00,36.8,35.5,29.56,NNE,19,10.0,14.0,95,0.05,,---,0.05,VWS V12.07,2013-04-01 06:05:00,
2013-04-01 02:15:00,36.6,35.3,29.56,NNE,27,13.0,14.0,95,0.05,,---,0.05,VWS V12.07,2013-04-01 06:15:00,
2013-04-01 02:25:00,36.5,35.2,29.55,NE,51,10.0,14.0,95,0.06,,---,0.06,VWS V12.07,2013-04-01 06:25:00,
2013-04-01 02:35:00,36.3,35.3,29.54,NNE,24,10.0,12.0,96,0.03,,---,0.06,VWS V12.07,2013-04-01 06:35:00,
2013-04-01 02:45:00,36.2,35.2,29.54,NNE,23,14.0,15.0,96,0.03,,---,0.06,VWS V12.07,2013-04-01 06:45:00,
2013-04-01 02:55:00,36.0,35.0,29.53,NE,49,9.0,18.0,96,0.03,,---,0.06,VWS V12.07,2013-04-01 06:55:00,
2013-04-01 03:05:00,36.0,35.0,29.53,NNE,22,9.0,14.0,96,0.01,,---,0.06,VWS V12.07,2013-04-01 07:05:00,
2013-04-01 03:10:00,36.0,35.0,29.53,NNE,13,4.0,14.0,96,0.02,,---,0.07,VWS V12.07,2013-04-01 07:10:00,
2013-04-01 03:16:00,35.9,34.9,29.53,NNE,29,7.0,14.0,96,0.02,,---,0.07,VWS V12.07,2013-04-01 07:16:00,
2013-04-01 03:35:00,35.8,35.0,29.52,NE,35,11.0,11.0,97,0.02,,---,0.08,VWS V12.07,2013-04-01 07:35:00,
2013-04-01 03:45:00,35.6,34.8,29.52,NE,43,12.0,15.0,97,0.02,,---,0.08,VWS V12.07,2013-04-01 07:45:00,
2013-04-01 03:55:00,35.6,34.8,29.51,NE,36,9.0,15.0,97,0.02,,---,0.08,VWS V12.07,2013-04-01 07:55:00,
2013-04-01 04:05:00,35.6,34.8,29.51,NNE,19,4.0,11.0,97,0.02,,---,0.08,VWS V12.07,2013-04-01 08:05:00,
2013-04-01 04:15:00,35.6,34.8,29.51,NNE,32,5.0,11.0,97,0.02,,---,0.08,VWS V12.07,2013-04-01 08:15:00,
2013-04-01 04:25:00,35.5,34.7,29.51,NE,42,6.0,13.0,97,0.02,,---,0.08,VWS V12.07,2013-04-01 08:25:00,
2013-04-01 04:35:00,35.5,34.7,29.50,North,8,7.0,11.0,97,0.00,,---,0.08,VWS V12.07,2013-04-01 08:35:00,
2013-04-01 04:45:00,35.3,34.5,29.50,NE,45,7.0,11.0,97,0.00,,---,0.08,VWS V12.07,2013-04-01 08:45:00,
2013-04-01 04:55:00,35.3,34.5,29.51,NNE,27,7.0,11.0,97,0.00,,---,0.08,VWS V12.07,2013-04-01 08:55:00,
2013-04-01 05:05:00,35.3,34.5,29.52,NNE,25,3.0,9.0,97,0.00,,---,0.08,VWS V12.07,2013-04-01 09:05:00,
2013-04-01 05:15:00,35.5,34.7,29.52,North,5,0.0,9.0,97,0.00,,---,0.08,VWS V12.07,2013-04-01 09:15:00,
2013-04-01 05:25:00,35.5,34.7,29.52,NNE,18,3.0,9.0,97,0.00,,---,0.08,VWS V12.07,2013-04-01 09:25:00,
2013-04-01 05:35:00,35.5,34.7,29.52,North,351,0.0,4.0,97,0.00,,---,0.08,VWS V12.07,2013-04-01 09:35:00,
2013-04-01 05:45:00,35.5,34.7,29.52,NNE,12,1.0,5.0,97,0.00,,---,0.08,VWS V12.07,2013-04-01 09:45:00,
2013-04-01 05:55:00,35.3,34.5,29.52,North,353,0.0,7.0,97,0.00,,---,0.08,VWS V12.07,2013-04-01 09:55:00,
2013-04-01 06:05:00,35.5,34.7,29.52,North,349,0.0,1.0,97,0.00,,---,0.08,VWS V12.07,2013-04-01 10:05:00,
2013-04-01 06:15:00,35.3,34.5,29.52,North,349,0.0,2.0,97,0.00,,---,0.08,VWS V12.07,2013-04-01 10:15:00,
2013-04-01 06:25:00,35.3,34.5,29.53,North,349,0.0,3.0,97,0.00,,---,0.08,VWS V12.07,2013-04-01 10:25:00,
2013-04-01 06:35:00,35.3,34.5,29.54,North,349,2.0,2.0,97,0.00,,---,0.08,VWS V12.07,2013-04-01 10:35:00,
2013-04-01 06:45:00,35.3,34.5,29.54,North,349,0.0,3.0,97,0.00,,---,0.08,VWS V12.07,2013-04-01 10:45:00,
2013-04-01 06:55:00,35.3,34.5,29.55,West,260,2.0,3.0,97,0.00,,---,0.08,VWS V12.07,2013-04-01 10:55:00,
2013-04-01 07:05:00,35.3,34.5,29.55,WSW,237,0.0,3.0,97,0.00,,---,0.08,VWS V12.07,2013-04-01 11:05:00,
2013-04-01 07:15:00,35.5,34.7,29.55,SW,236,0.0,3.0,97,0.00,,---,0.08,VWS V12.07,2013-04-01 11:15:00,
2013-04-01 07:25:00,35.6,34.8,29.55,WSW,250,2.0,5.0,97,0.00,,---,0.08,VWS V12.07,2013-04-01 11:25:00,
2013-04-01 07:35:00,35.8,35.0,29.55,WSW,249,3.0,5.0,97,0.00,,---,0.08,VWS V12.07,2013-04-01 11:35:00,
2013-04-01 07:45:00,35.9,35.1,29.55,WSW,249,4.0,5.0,97,0.00,,---,0.08,VWS V12.07,2013-04-01 11:45:00,
2013-04-01 07:54:00,35.9,35.1,29.55,WSW,249,3.0,5.0,97,0.00,,---,0.08,VWS V12.07,2013-04-01 11:54:00,
2013-04-01 08:05:00,36.2,35.4,29.55,WSW,249,3.0,5.0,97,0.00,,---,0.08,VWS V12.07,2013-04-01 12:05:00,
2013-04-01 08:15:00,36.5,35.7,29.55,WSW,249,4.0,5.0,97,0.00,,---,0.08,VWS V12.07,2013-04-01 12:15:00,
2013-04-01 08:26:00,36.5,35.7,29.55,WSW,249,2.0,5.0,97,0.00,,---,0.08,VWS V12.07,2013-04-01 12:26:00,
2013-04-01 08:36:00,37.0,36.2,29.53,WSW,241,3.0,6.0,97,0.00,,---,0.08,VWS V12.07,2013-04-01 12:36:00,
2013-04-01 08:45:00,37.8,37.3,29.53,WSW,241,3.0,6.0,98,0.00,,---,0.08,VWS V12.07,2013-04-01 12:45:00,
2013-04-01 08:55:00,38.6,38.1,29.52,SSW,211,3.0,6.0,98,0.00,,---,0.08,VWS V12.07,2013-04-01 12:55:00,
2013-04-01 09:05:00,39.1,38.6,29.51,SSW,212,3.0,5.0,98,0.00,,---,0.08,VWS V12.07,2013-04-01 13:05:00,
2013-04-01 09:15:00,39.3,38.8,29.51,SSW,209,5.0,6.0,98,0.00,,---,0.08,VWS V12.07,2013-04-01 13:15:00,
2013-04-01 09:25:00,40.1,39.6,29.51,SW,215,4.0,7.0,98,0.00,,---,0.08,VWS V12.07,2013-04-01 13:25:00,
2013-04-01 09:35:00,40.6,39.8,29.50,WSW,237,5.0,8.0,97,0.00,,---,0.08,VWS V12.07,2013-04-01 13:35:00,
2013-04-01 09:45:00,40.6,39.5,29.50,SW,227,6.0,11.0,96,0.00,,---,0.08,VWS V12.07,2013-04-01 13:45:00,
2013-04-01 09:55:00,41.3,40.0,29.50,SW,216,7.0,11.0,95,0.00,,---,0.08,VWS V12.07,2013-04-01 13:55:00,
2013-04-01 10:05:00,42.1,40.0,29.49,WSW,254,4.0,6.0,92,0.00,,---,0.08,VWS V12.07,2013-04-01 14:05:00,
2013-04-01 10:15:00,43.1,40.7,29.49,SW,230,6.0,10.0,91,0.00,,---,0.08,VWS V12.07,2013-04-01 14:15:00,
2013-04-01 10:25:00,43.3,39.7,29.49,SSW,211,10.0,14.0,87,0.00,,---,0.08,VWS V12.07,2013-04-01 14:25:00,
2013-04-01 10:35:00,43.3,39.4,29.49,SSW,206,6.0,12.0,86,0.00,,---,0.08,VWS V12.07,2013-04-01 14:35:00,
2013-04-01 10:45:00,42.8,38.9,29.49,SSW,210,7.0,13.0,86,0.00,,---,0.08,VWS V12.07,2013-04-01 14:45:00,
2013-04-01 10:55:00,44.1,40.2,29.49,SW,226,5.0,13.0,86,0.00,,---,0.08,VWS V12.07,2013-04-01 14:55:00,
2013-04-01 11:05:00,44.6,40.1,29.48,South,175,9.0,12.0,84,0.00,,---,0.08,VWS V12.07,2013-04-01 15:05:00,
2013-04-01 11:15:00,45.1,40.2,29.48,SSW,204,7.0,16.0,83,0.00,,---,0.08,VWS V12.07,2013-04-01 15:15:00,
2013-04-01 11:20:00,45.5,40.3,29.48,South,175,5.0,16.0,82,0.00,,---,0.08,VWS V12.07,2013-04-01 15:20:00,
2013-04-01 11:27:00,46.2,40.4,29.48,SSW,211,10.0,16.0,80,0.00,,---,0.08,VWS V12.07,2013-04-01 15:27:00,
2013-04-01 11:36:00,47.0,40.5,29.47,SW,222,10.0,16.0,78,0.00,,---,0.08,VWS V12.07,2013-04-01 15:36:00,
2013-04-01 11:46:00,46.5,40.0,29.47,SSW,206,7.0,17.0,78,0.00,,---,0.08,VWS V12.07,2013-04-01 15:46:00,
2013-04-01 12:05:00,49.4,41.5,29.46,SW,216,15.0,16.0,74,0.00,,---,0.08,VWS V12.07,2013-04-01 16:05:00,
2013-04-01 12:15:00,49.1,40.8,29.46,SW,218,12.0,16.0,73,0.00,,---,0.08,VWS V12.07,2013-04-01 16:15:00,
2013-04-01 12:25:00,48.5,40.2,29.45,SW,235,14.0,16.0,73,0.00,,---,0.08,VWS V12.07,2013-04-01 16:25:00,
2013-04-01 12:35:00,48.2,40.3,29.45,WSW,251,10.0,15.0,74,0.00,,---,0.08,VWS V12.07,2013-04-01 16:35:00,
2013-04-01 12:45:00,49.6,41.0,29.45,SW,235,13.0,19.0,72,0.00,,---,0.08,VWS V12.07,2013-04-01 16:45:00,
2013-04-01 12:57:00,48.8,40.2,29.43,SW,218,9.0,21.0,72,0.00,,---,0.08,VWS V12.07,2013-04-01 16:57:00,
2013-04-01 13:37:00,46.5,38.7,29.45,WNW,287,10.0,27.0,74,0.00,,---,0.08,VWS V12.07,2013-04-01 17:37:00,
2013-04-01 13:57:00,42.3,35.6,29.46,West,281,8.0,28.0,77,0.00,,---,0.08,VWS V12.07,2013-04-01 17:57:00,
2013-04-01 14:17:00,41.1,35.1,29.47,WSW,241,3.0,18.0,79,0.00,,---,0.08,VWS V12.07,2013-04-01 18:17:00,
2013-04-01 14:25:00,41.3,35.0,29.47,West,270,11.0,18.0,78,0.00,,---,0.08,VWS V12.07,2013-04-01 18:25:00,
2013-04-01 14:36:00,41.9,34.9,29.47,West,275,4.0,18.0,76,0.00,,---,0.08,VWS V12.07,2013-04-01 18:36:00,
2013-04-01 14:55:00,42.6,33.9,29.48,West,262,9.0,23.0,71,0.00,,---,0.08,VWS V12.07,2013-04-01 18:55:00,
2013-04-01 15:06:00,42.9,34.2,29.48,West,273,13.0,17.0,71,0.00,,---,0.08,VWS V12.07,2013-04-01 19:06:00,
2013-04-01 15:45:00,42.5,29.6,29.50,NW,322,11.0,26.0,60,0.00,,---,0.08,VWS V12.07,2013-04-01 19:45:00,
2013-04-01 16:06:00,40.8,28.8,29.52,WNW,302,2.0,11.0,62,0.00,,---,0.08,VWS V12.07,2013-04-01 20:06:00,
2013-04-01 16:16:00,39.6,25.6,29.52,NW,312,22.0,26.0,57,0.00,,---,0.08,VWS V12.07,2013-04-01 20:16:00,
2013-04-01 16:25:00,38.6,24.3,29.52,West,274,14.0,32.0,56,0.00,,---,0.08,VWS V12.07,2013-04-01 20:25:00,
2013-04-01 16:35:00,38.5,23.8,29.53,WNW,282,21.0,33.0,55,0.00,,---,0.08,VWS V12.07,2013-04-01 20:35:00,
2013-04-01 16:46:00,38.3,23.1,29.55,WSW,258,22.0,33.0,54,0.00,,---,0.08,VWS V12.07,2013-04-01 20:46:00,
2013-04-01 16:57:00,37.3,22.6,29.55,West,266,7.0,35.0,55,0.00,,---,0.08,VWS V12.07,2013-04-01 20:57:00,
2013-04-01 17:05:00,37.0,22.8,29.56,NW,309,14.0,21.0,56,0.00,,---,0.08,VWS V12.07,2013-04-01 21:05:00,
2013-04-01 17:15:00,37.0,21.9,29.56,West,281,21.0,27.0,54,0.00,,---,0.08,VWS V12.07,2013-04-01 21:15:00,
2013-04-01 17:26:00,36.9,20.9,29.56,WNW,295,11.0,30.0,52,0.00,,---,0.08,VWS V12.07,2013-04-01 21:26:00,
2013-04-01 17:46:00,37.0,18.7,29.58,WNW,282,11.0,33.0,47,0.00,,---,0.08,VWS V12.07,2013-04-01 21:46:00,
2013-04-01 17:56:00,37.0,16.6,29.58,West,281,33.0,34.0,43,0.00,,---,0.08,VWS V12.07,2013-04-01 21:56:00,
2013-04-01 18:07:00,37.5,17.0,29.58,WSW,247,13.0,30.0,43,0.00,,---,0.08,VWS V12.07,2013-04-01 22:07:00,
2013-04-01 18:16:00,37.0,16.6,29.58,NW,315,14.0,31.0,43,0.00,,---,0.08,VWS V12.07,2013-04-01 22:16:00,
2013-04-01 18:45:00,36.0,13.5,29.59,NW,310,10.0,30.0,39,0.00,,---,0.08,VWS V12.07,2013-04-01 22:45:00,
2013-04-01 18:56:00,35.9,13.9,29.60,NNW,333,16.0,30.0,40,0.00,,---,0.08,VWS V12.07,2013-04-01 22:56:00,
2013-04-01 19:06:00,35.2,13.3,29.61,NNW,344,15.0,23.0,40,0.00,,---,0.08,VWS V12.07,2013-04-01 23:06:00,
2013-04-01 19:36:00,33.8,9.1,29.62,NNW,330,11.0,24.0,35,0.00,,---,0.08,VWS V12.07,2013-04-01 23:36:00,
2013-04-01 19:46:00,33.5,9.4,29.64,NW,324,6.0,24.0,36,0.00,,---,0.08,VWS V12.07,2013-04-01 23:46:00,
2013-04-01 19:56:00,32.9,8.3,29.64,NNW,333,11.0,24.0,35,0.00,,---,0.08,VWS V12.07,2013-04-01 23:56:00,
2013-04-01 20:26:00,32.2,8.3,29.65,West,265,2.0,27.0,36,0.00,,---,0.08,VWS V12.07,2013-04-02 00:26:00,
2013-04-01 20:33:00,32.2,8.3,29.66,WNW,292,13.0,18.0,36,0.00,,---,0.08,VWS V12.07,2013-04-02 00:33:00,
2013-04-01 21:16:00,30.9,8.9,29.67,West,278,5.0,27.0,39,0.00,,---,0.08,VWS V12.07,2013-04-02 01:16:00,
2013-04-01 21:27:00,30.4,9.0,29.67,NW,309,5.0,31.0,40,0.00,,---,0.08,VWS V12.07,2013-04-02 01:27:00,
2013-04-01 21:36:00,30.3,9.4,29.68,West,274,11.0,24.0,41,0.00,,---,0.08,VWS V12.07,2013-04-02 01:36:00,
2013-04-01 22:06:00,29.4,10.7,29.69,NNW,342,6.0,19.0,45,0.00,,---,0.08,VWS V12.07,2013-04-02 02:06:00,
2013-04-01 22:17:00,29.3,11.1,29.69,West,268,7.0,26.0,46,0.00,,---,0.08,VWS V12.07,2013-04-02 02:17:00,
2013-04-01 22:25:00,29.0,11.3,29.69,NNW,330,18.0,31.0,47,0.00,,---,0.08,VWS V12.07,2013-04-02 02:25:00,
2013-04-01 22:35:00,29.0,11.3,29.69,NNW,328,9.0,21.0,47,0.00,,---,0.08,VWS V12.07,2013-04-02 02:35:00,
2013-04-01 22:46:00,28.8,11.6,29.69,NW,318,17.0,26.0,48,0.00,,---,0.08,VWS V12.07,2013-04-02 02:46:00,
2013-04-01 22:56:00,28.7,12.0,29.69,NW,308,11.0,26.0,49,0.00,,---,0.08,VWS V12.07,2013-04-02 02:56:00,
2013-04-01 23:06:00,28.4,11.7,29.69,NW,323,5.0,17.0,49,0.00,,---,0.08,VWS V12.07,2013-04-02 03:06:00,
2013-04-01 23:16:00,28.1,11.9,29.69,WNW,282,6.0,23.0,50,0.00,,---,0.08,VWS V12.07,2013-04-02 03:16:00,
2013-04-01 23:26:00,28.1,11.4,29.69,WNW,283,12.0,33.0,49,0.00,,---,0.08,VWS V12.07,2013-04-02 03:26:00,
2013-04-01 23:36:00,27.9,11.2,29.69,NW,322,5.0,20.0,49,0.00,,---,0.08,VWS V12.07,2013-04-02 03:36:00,
2013-04-01 23:46:00,27.8,11.1,29.69,NNW,336,9.0,23.0,49,0.00,,---,0.08,VWS V12.07,2013-04-02 03:46:00,
2013-04-01 23:56:00,27.5,10.9,29.69,NNW,331,10.0,23.0,49,0.00,,---,0.08,VWS V12.07,2013-04-02 03:56:00,